sensor_id;sensor_type;location;lat;lon;timestamp;pressure;altitude;pressure_sealevel;temperature;humidity
53514;BME280;39768;54.148;12.174;2023-05-11T00:03:56;101260.88;;;14.26;nan
53514;BME280;39768;54.148;12.174;2023-05-11T00:07:58;101252.66;;;14.36;nan
53514;BME280;39768;54.148;12.174;2023-05-11T00:11:59;101259.22;;;14.63;nan
53514;BME280;39768;54.148;12.174;2023-05-11T00:16:02;101255.94;;;14.51;nan
53514;BME280;39768;54.148;12.174;2023-05-11T00:20:05;101263.41;;;14.32;nan
53514;BME280;39768;54.148;12.174;2023-05-11T00:24:07;101264.53;;;14.65;nan
53514;BME280;39768;54.148;12.174;2023-05-11T00:28:08;101264.19;;;14.80;nan
53514;BME280;39768;54.148;12.174;2023-05-11T00:32:11;101263.00;;;14.53;nan
53514;BME280;39768;54.148;12.174;2023-05-11T00:36:12;101271.03;;;14.92;nan
53514;BME280;39768;54.148;12.174;2023-05-11T00:40:14;101270.97;;;14.95;nan
53514;BME280;39768;54.148;12.174;2023-05-11T00:44:15;101271.19;;;14.84;nan
53514;BME280;39768;54.148;12.174;2023-05-11T00:48:17;101271.63;;;15.04;nan
53514;BME280;39768;54.148;12.174;2023-05-11T00:52:20;101269.53;;;14.80;nan
53514;BME280;39768;54.148;12.174;2023-05-11T00:56:21;101271.00;;;14.93;nan
53514;BME280;39768;54.148;12.174;2023-05-11T01:00:23;101273.75;;;14.90;nan
53514;BME280;39768;54.148;12.174;2023-05-11T01:04:24;101281.81;;;14.02;nan
53514;BME280;39768;54.148;12.174;2023-05-11T01:08:37;101282.97;;;14.34;nan
53514;BME280;39768;54.148;12.174;2023-05-11T01:12:49;101275.09;;;14.69;nan
53514;BME280;39768;54.148;12.174;2023-05-11T01:17:02;101282.63;;;14.92;nan
53514;BME280;39768;54.148;12.174;2023-05-11T01:21:07;101288.75;;;14.97;nan
53514;BME280;39768;54.148;12.174;2023-05-11T01:25:45;101281.03;;;14.84;nan
53514;BME280;39768;54.148;12.174;2023-05-11T01:34:22;101291.25;;;15.03;nan
53514;BME280;39768;54.148;12.174;2023-05-11T01:38:25;101292.25;;;14.59;nan
53514;BME280;39768;54.148;12.174;2023-05-11T01:42:37;101293.56;;;14.81;nan
53514;BME280;39768;54.148;12.174;2023-05-11T01:46:40;101298.97;;;14.35;nan
53514;BME280;39768;54.148;12.174;2023-05-11T01:50:42;101296.56;;;14.23;nan
53514;BME280;39768;54.148;12.174;2023-05-11T01:54:45;101299.00;;;14.34;nan
53514;BME280;39768;54.148;12.174;2023-05-11T01:58:49;101301.59;;;13.92;nan
53514;BME280;39768;54.148;12.174;2023-05-11T02:02:52;101299.09;;;14.28;nan
53514;BME280;39768;54.148;12.174;2023-05-11T02:06:55;101304.06;;;14.03;nan
53514;BME280;39768;54.148;12.174;2023-05-11T02:11:01;101306.19;;;13.84;nan
53514;BME280;39768;54.148;12.174;2023-05-11T02:15:03;101306.53;;;14.12;nan
53514;BME280;39768;54.148;12.174;2023-05-11T02:19:06;101307.09;;;14.29;nan
53514;BME280;39768;54.148;12.174;2023-05-11T02:23:10;101310.88;;;14.19;nan
53514;BME280;39768;54.148;12.174;2023-05-11T02:27:12;101316.47;;;14.52;nan
53514;BME280;39768;54.148;12.174;2023-05-11T02:31:19;101306.66;;;14.52;nan
53514;BME280;39768;54.148;12.174;2023-05-11T02:35:24;101311.56;;;14.72;nan
53514;BME280;39768;54.148;12.174;2023-05-11T02:39:32;101318.25;;;14.53;nan
53514;BME280;39768;54.148;12.174;2023-05-11T02:43:38;101317.75;;;14.74;nan
53514;BME280;39768;54.148;12.174;2023-05-11T02:47:47;101313.06;;;14.43;nan
53514;BME280;39768;54.148;12.174;2023-05-11T02:51:56;101322.75;;;14.03;nan
53514;BME280;39768;54.148;12.174;2023-05-11T02:55:59;101325.53;;;13.95;nan
53514;BME280;39768;54.148;12.174;2023-05-11T03:00:03;101333.88;;;13.79;nan
53514;BME280;39768;54.148;12.174;2023-05-11T03:04:05;101329.78;;;12.98;nan
53514;BME280;39768;54.148;12.174;2023-05-11T03:08:07;101327.03;;;13.62;nan
53514;BME280;39768;54.148;12.174;2023-05-11T03:12:09;101326.38;;;13.50;nan
53514;BME280;39768;54.148;12.174;2023-05-11T03:16:11;101324.25;;;13.15;nan
53514;BME280;39768;54.148;12.174;2023-05-11T03:20:15;101336.50;;;13.25;nan
53514;BME280;39768;54.148;12.174;2023-05-11T03:24:19;101332.09;;;13.77;nan
53514;BME280;39768;54.148;12.174;2023-05-11T03:28:22;101332.59;;;13.99;nan
53514;BME280;39768;54.148;12.174;2023-05-11T03:32:33;101332.28;;;13.65;nan
53514;BME280;39768;54.148;12.174;2023-05-11T03:36:37;101328.59;;;13.75;nan
53514;BME280;39768;54.148;12.174;2023-05-11T03:40:40;101326.31;;;14.02;nan
53514;BME280;39768;54.148;12.174;2023-05-11T03:44:45;101321.19;;;14.37;nan
53514;BME280;39768;54.148;12.174;2023-05-11T03:48:48;101326.38;;;13.99;nan
53514;BME280;39768;54.148;12.174;2023-05-11T03:52:54;101332.44;;;14.08;nan
53514;BME280;39768;54.148;12.174;2023-05-11T03:56:56;101341.16;;;14.63;nan
53514;BME280;39768;54.148;12.174;2023-05-11T04:00:58;101335.75;;;15.07;nan
53514;BME280;39768;54.148;12.174;2023-05-11T04:05:00;101338.88;;;15.26;nan
53514;BME280;39768;54.148;12.174;2023-05-11T04:09:06;101343.56;;;14.30;nan
53514;BME280;39768;54.148;12.174;2023-05-11T04:13:09;101342.19;;;14.56;nan
53514;BME280;39768;54.148;12.174;2023-05-11T04:17:11;101350.50;;;14.42;nan
53514;BME280;39768;54.148;12.174;2023-05-11T04:21:12;101348.78;;;14.82;nan
53514;BME280;39768;54.148;12.174;2023-05-11T04:25:15;101357.72;;;15.59;nan
53514;BME280;39768;54.148;12.174;2023-05-11T04:29:16;101353.44;;;15.50;nan
53514;BME280;39768;54.148;12.174;2023-05-11T04:33:18;101362.03;;;15.66;nan
53514;BME280;39768;54.148;12.174;2023-05-11T04:37:20;101358.50;;;15.64;nan
53514;BME280;39768;54.148;12.174;2023-05-11T04:41:22;101363.56;;;16.42;nan
53514;BME280;39768;54.148;12.174;2023-05-11T04:45:25;101366.31;;;17.03;nan
53514;BME280;39768;54.148;12.174;2023-05-11T04:49:26;101363.59;;;18.13;nan
53514;BME280;39768;54.148;12.174;2023-05-11T04:53:29;101364.69;;;20.75;nan
53514;BME280;39768;54.148;12.174;2023-05-11T04:57:30;101371.47;;;20.84;nan
53514;BME280;39768;54.148;12.174;2023-05-11T05:01:32;101367.66;;;17.73;nan
53514;BME280;39768;54.148;12.174;2023-05-11T05:05:34;101372.91;;;16.91;nan
53514;BME280;39768;54.148;12.174;2023-05-11T05:09:35;101373.84;;;16.57;nan
53514;BME280;39768;54.148;12.174;2023-05-11T05:13:37;101377.94;;;16.72;nan
53514;BME280;39768;54.148;12.174;2023-05-11T05:17:40;101380.63;;;17.02;nan
53514;BME280;39768;54.148;12.174;2023-05-11T05:21:42;101383.88;;;17.13;nan
53514;BME280;39768;54.148;12.174;2023-05-11T05:25:44;101385.28;;;17.24;nan
53514;BME280;39768;54.148;12.174;2023-05-11T05:29:46;101383.41;;;18.10;nan
53514;BME280;39768;54.148;12.174;2023-05-11T05:33:48;101390.44;;;18.13;nan
53514;BME280;39768;54.148;12.174;2023-05-11T05:37:51;101392.75;;;18.25;nan
53514;BME280;39768;54.148;12.174;2023-05-11T05:41:53;101393.00;;;18.92;nan
53514;BME280;39768;54.148;12.174;2023-05-11T05:45:54;101403.13;;;19.76;nan
53514;BME280;39768;54.148;12.174;2023-05-11T05:49:57;101411.78;;;19.62;nan
53514;BME280;39768;54.148;12.174;2023-05-11T05:53:59;101409.75;;;20.11;nan
53514;BME280;39768;54.148;12.174;2023-05-11T05:58:00;101410.72;;;19.66;nan
53514;BME280;39768;54.148;12.174;2023-05-11T06:02:02;101419.88;;;19.38;nan
53514;BME280;39768;54.148;12.174;2023-05-11T06:06:05;101428.78;;;18.94;nan
53514;BME280;39768;54.148;12.174;2023-05-11T06:10:07;101431.94;;;18.30;nan
53514;BME280;39768;54.148;12.174;2023-05-11T06:14:08;101430.34;;;18.76;nan
53514;BME280;39768;54.148;12.174;2023-05-11T06:18:10;101433.19;;;19.43;nan
53514;BME280;39768;54.148;12.174;2023-05-11T06:22:14;101430.16;;;19.29;nan
53514;BME280;39768;54.148;12.174;2023-05-11T06:26:16;101432.03;;;19.72;nan
53514;BME280;39768;54.148;12.174;2023-05-11T06:30:18;101437.47;;;19.92;nan
53514;BME280;39768;54.148;12.174;2023-05-11T06:34:22;101437.09;;;19.80;nan
53514;BME280;39768;54.148;12.174;2023-05-11T06:38:24;101436.34;;;19.98;nan
53514;BME280;39768;54.148;12.174;2023-05-11T06:42:26;101438.81;;;19.82;nan
53514;BME280;39768;54.148;12.174;2023-05-11T06:46:38;101441.34;;;20.29;nan
53514;BME280;39768;54.148;12.174;2023-05-11T06:50:39;101439.81;;;20.84;nan
53514;BME280;39768;54.148;12.174;2023-05-11T06:54:41;101441.38;;;21.66;nan
53514;BME280;39768;54.148;12.174;2023-05-11T06:58:43;101438.53;;;21.11;nan
53514;BME280;39768;54.148;12.174;2023-05-11T07:02:44;101445.47;;;20.78;nan
53514;BME280;39768;54.148;12.174;2023-05-11T07:06:46;101450.28;;;20.71;nan
53514;BME280;39768;54.148;12.174;2023-05-11T07:10:47;101449.53;;;20.88;nan
53514;BME280;39768;54.148;12.174;2023-05-11T07:14:49;101452.09;;;21.10;nan
53514;BME280;39768;54.148;12.174;2023-05-11T07:18:51;101448.59;;;22.38;nan
53514;BME280;39768;54.148;12.174;2023-05-11T07:22:58;101451.22;;;22.22;nan
53514;BME280;39768;54.148;12.174;2023-05-11T07:27:00;101453.03;;;22.73;nan
53514;BME280;39768;54.148;12.174;2023-05-11T07:31:02;101450.84;;;22.81;nan
53514;BME280;39768;54.148;12.174;2023-05-11T07:35:04;101444.06;;;22.21;nan
53514;BME280;39768;54.148;12.174;2023-05-11T07:39:05;101449.72;;;23.34;nan
53514;BME280;39768;54.148;12.174;2023-05-11T07:43:07;101456.72;;;23.23;nan
53514;BME280;39768;54.148;12.174;2023-05-11T07:47:08;101453.09;;;23.06;nan
53514;BME280;39768;54.148;12.174;2023-05-11T07:51:10;101459.19;;;22.77;nan
53514;BME280;39768;54.148;12.174;2023-05-11T07:55:12;101459.84;;;23.64;nan
53514;BME280;39768;54.148;12.174;2023-05-11T07:59:13;101461.19;;;21.84;nan
53514;BME280;39768;54.148;12.174;2023-05-11T08:03:15;101472.66;;;22.78;nan
53514;BME280;39768;54.148;12.174;2023-05-11T08:07:16;101465.19;;;23.32;nan
53514;BME280;39768;54.148;12.174;2023-05-11T08:11:18;101467.69;;;22.86;nan
53514;BME280;39768;54.148;12.174;2023-05-11T08:15:19;101472.03;;;23.88;nan
53514;BME280;39768;54.148;12.174;2023-05-11T08:19:21;101473.13;;;23.52;nan
53514;BME280;39768;54.148;12.174;2023-05-11T08:23:23;101470.28;;;23.38;nan
53514;BME280;39768;54.148;12.174;2023-05-11T08:27:24;101475.03;;;23.17;nan
53514;BME280;39768;54.148;12.174;2023-05-11T08:31:26;101473.69;;;23.26;nan
53514;BME280;39768;54.148;12.174;2023-05-11T08:35:27;101488.72;;;22.64;nan
53514;BME280;39768;54.148;12.174;2023-05-11T08:39:29;101478.41;;;22.19;nan
53514;BME280;39768;54.148;12.174;2023-05-11T08:43:47;101489.66;;;22.46;nan
53514;BME280;39768;54.148;12.174;2023-05-11T08:47:49;101495.53;;;23.23;nan
53514;BME280;39768;54.148;12.174;2023-05-11T08:51:50;101487.59;;;23.84;nan
53514;BME280;39768;54.148;12.174;2023-05-11T08:55:53;101493.19;;;23.97;nan
53514;BME280;39768;54.148;12.174;2023-05-11T08:59:55;101488.75;;;24.42;nan
53514;BME280;39768;54.148;12.174;2023-05-11T09:03:57;101489.69;;;23.79;nan
53514;BME280;39768;54.148;12.174;2023-05-11T09:08:00;101483.91;;;23.37;nan
53514;BME280;39768;54.148;12.174;2023-05-11T09:12:04;101480.66;;;23.63;nan
53514;BME280;39768;54.148;12.174;2023-05-11T09:16:07;101486.53;;;23.55;nan
53514;BME280;39768;54.148;12.174;2023-05-11T09:20:31;101485.84;;;24.60;nan
53514;BME280;39768;54.148;12.174;2023-05-11T09:24:33;101481.28;;;24.15;nan
53514;BME280;39768;54.148;12.174;2023-05-11T09:28:35;101485.84;;;23.99;nan
53514;BME280;39768;54.148;12.174;2023-05-11T09:32:59;101480.72;;;24.40;nan
53514;BME280;39768;54.148;12.174;2023-05-11T09:37:01;101481.44;;;24.88;nan
53514;BME280;39768;54.148;12.174;2023-05-11T09:41:02;101483.34;;;24.42;nan
53514;BME280;39768;54.148;12.174;2023-05-11T09:45:07;101487.28;;;24.96;nan
53514;BME280;39768;54.148;12.174;2023-05-11T09:49:09;101483.91;;;25.07;nan
53514;BME280;39768;54.148;12.174;2023-05-11T09:53:11;101473.72;;;24.20;nan
53514;BME280;39768;54.148;12.174;2023-05-11T09:57:25;101468.28;;;24.20;nan
53514;BME280;39768;54.148;12.174;2023-05-11T10:01:29;101472.06;;;25.36;nan
53514;BME280;39768;54.148;12.174;2023-05-11T10:05:34;101476.22;;;25.42;nan
53514;BME280;39768;54.148;12.174;2023-05-11T10:09:36;101472.84;;;25.10;nan
53514;BME280;39768;54.148;12.174;2023-05-11T10:13:39;101471.91;;;24.51;nan
53514;BME280;39768;54.148;12.174;2023-05-11T10:17:41;101472.91;;;25.08;nan
53514;BME280;39768;54.148;12.174;2023-05-11T10:21:46;101463.72;;;25.11;nan
53514;BME280;39768;54.148;12.174;2023-05-11T10:25:49;101466.84;;;25.33;nan
53514;BME280;39768;54.148;12.174;2023-05-11T10:29:51;101472.69;;;25.82;nan
53514;BME280;39768;54.148;12.174;2023-05-11T10:33:53;101474.59;;;25.25;nan
53514;BME280;39768;54.148;12.174;2023-05-11T10:37:55;101472.13;;;25.77;nan
53514;BME280;39768;54.148;12.174;2023-05-11T10:46:24;101465.91;;;25.61;nan
53514;BME280;39768;54.148;12.174;2023-05-11T10:55:07;101466.09;;;25.86;nan
53514;BME280;39768;54.148;12.174;2023-05-11T11:03:20;101465.09;;;26.28;nan
53514;BME280;39768;54.148;12.174;2023-05-11T11:07:22;101463.06;;;25.91;nan
53514;BME280;39768;54.148;12.174;2023-05-11T11:11:28;101469.53;;;25.76;nan
53514;BME280;39768;54.148;12.174;2023-05-11T11:19:50;101462.53;;;25.98;nan
53514;BME280;39768;54.148;12.174;2023-05-11T11:23:52;101462.19;;;25.21;nan
53514;BME280;39768;54.148;12.174;2023-05-11T11:27:55;101458.47;;;25.50;nan
53514;BME280;39768;54.148;12.174;2023-05-11T11:40:55;101458.19;;;25.26;nan
53514;BME280;39768;54.148;12.174;2023-05-11T11:45:26;101473.22;;;25.46;nan
53514;BME280;39768;54.148;12.174;2023-05-11T11:49:31;101471.38;;;25.47;nan
53514;BME280;39768;54.148;12.174;2023-05-11T11:57:44;101467.38;;;24.51;nan
53514;BME280;39768;54.148;12.174;2023-05-11T12:01:50;101460.00;;;23.92;nan
53514;BME280;39768;54.148;12.174;2023-05-11T12:05:55;101462.38;;;24.74;nan
53514;BME280;39768;54.148;12.174;2023-05-11T12:10:01;101478.00;;;24.84;nan
53514;BME280;39768;54.148;12.174;2023-05-11T12:14:04;101469.72;;;25.44;nan
53514;BME280;39768;54.148;12.174;2023-05-11T12:18:19;101465.06;;;25.75;nan
53514;BME280;39768;54.148;12.174;2023-05-11T12:22:22;101464.88;;;25.63;nan
53514;BME280;39768;54.148;12.174;2023-05-11T12:26:25;101458.56;;;25.49;nan
53514;BME280;39768;54.148;12.174;2023-05-11T12:30:29;101459.91;;;26.11;nan
53514;BME280;39768;54.148;12.174;2023-05-11T12:34:31;101477.66;;;26.44;nan
53514;BME280;39768;54.148;12.174;2023-05-11T12:38:33;101475.06;;;26.28;nan
53514;BME280;39768;54.148;12.174;2023-05-11T12:42:34;101471.31;;;26.83;nan
53514;BME280;39768;54.148;12.174;2023-05-11T12:46:36;101472.31;;;26.94;nan
53514;BME280;39768;54.148;12.174;2023-05-11T12:50:39;101458.09;;;26.89;nan
53514;BME280;39768;54.148;12.174;2023-05-11T12:54:47;101473.47;;;27.54;nan
53514;BME280;39768;54.148;12.174;2023-05-11T12:58:51;101465.31;;;27.41;nan
53514;BME280;39768;54.148;12.174;2023-05-11T13:02:55;101469.28;;;27.12;nan
53514;BME280;39768;54.148;12.174;2023-05-11T13:06:57;101469.13;;;27.38;nan
53514;BME280;39768;54.148;12.174;2023-05-11T13:11:21;101474.34;;;26.78;nan
53514;BME280;39768;54.148;12.174;2023-05-11T13:15:24;101466.66;;;26.18;nan
53514;BME280;39768;54.148;12.174;2023-05-11T13:19:27;101467.91;;;26.66;nan
53514;BME280;39768;54.148;12.174;2023-05-11T13:23:29;101463.44;;;26.91;nan
53514;BME280;39768;54.148;12.174;2023-05-11T13:27:32;101470.66;;;26.79;nan
53514;BME280;39768;54.148;12.174;2023-05-11T13:31:41;101467.09;;;25.98;nan
53514;BME280;39768;54.148;12.174;2023-05-11T13:35:43;101460.28;;;25.78;nan
53514;BME280;39768;54.148;12.174;2023-05-11T13:39:45;101461.72;;;25.84;nan
53514;BME280;39768;54.148;12.174;2023-05-11T13:43:46;101446.13;;;26.00;nan
53514;BME280;39768;54.148;12.174;2023-05-11T13:47:48;101456.31;;;26.50;nan
53514;BME280;39768;54.148;12.174;2023-05-11T13:51:50;101451.78;;;27.39;nan
53514;BME280;39768;54.148;12.174;2023-05-11T13:55:52;101457.25;;;27.01;nan
53514;BME280;39768;54.148;12.174;2023-05-11T13:59:54;101452.44;;;27.43;nan
53514;BME280;39768;54.148;12.174;2023-05-11T14:03:57;101452.91;;;27.24;nan
53514;BME280;39768;54.148;12.174;2023-05-11T14:07:58;101458.03;;;27.29;nan
53514;BME280;39768;54.148;12.174;2023-05-11T14:11:59;101451.28;;;27.84;nan
53514;BME280;39768;54.148;12.174;2023-05-11T14:16:01;101452.75;;;26.62;nan
53514;BME280;39768;54.148;12.174;2023-05-11T14:20:03;101455.09;;;26.42;nan
53514;BME280;39768;54.148;12.174;2023-05-11T14:24:05;101458.59;;;27.09;nan
53514;BME280;39768;54.148;12.174;2023-05-11T14:28:12;101452.84;;;27.62;nan
53514;BME280;39768;54.148;12.174;2023-05-11T14:32:14;101454.13;;;27.82;nan
53514;BME280;39768;54.148;12.174;2023-05-11T14:36:15;101454.22;;;27.19;nan
53514;BME280;39768;54.148;12.174;2023-05-11T14:40:17;101455.06;;;27.32;nan
53514;BME280;39768;54.148;12.174;2023-05-11T14:44:18;101453.53;;;26.90;nan
53514;BME280;39768;54.148;12.174;2023-05-11T14:48:21;101453.09;;;26.04;nan
53514;BME280;39768;54.148;12.174;2023-05-11T14:52:23;101451.94;;;26.35;nan
53514;BME280;39768;54.148;12.174;2023-05-11T14:56:24;101454.75;;;26.86;nan
53514;BME280;39768;54.148;12.174;2023-05-11T15:00:27;101455.75;;;27.23;nan
53514;BME280;39768;54.148;12.174;2023-05-11T15:04:29;101456.09;;;26.41;nan
53514;BME280;39768;54.148;12.174;2023-05-11T15:08:31;101458.16;;;26.37;nan
53514;BME280;39768;54.148;12.174;2023-05-11T15:12:32;101462.00;;;26.60;nan
53514;BME280;39768;54.148;12.174;2023-05-11T15:16:34;101460.69;;;26.53;nan
53514;BME280;39768;54.148;12.174;2023-05-11T15:20:35;101464.59;;;26.49;nan
53514;BME280;39768;54.148;12.174;2023-05-11T15:24:39;101468.97;;;26.51;nan
53514;BME280;39768;54.148;12.174;2023-05-11T15:28:41;101467.03;;;26.66;nan
53514;BME280;39768;54.148;12.174;2023-05-11T15:32:42;101467.25;;;26.76;nan
53514;BME280;39768;54.148;12.174;2023-05-11T15:36:44;101466.16;;;26.26;nan
53514;BME280;39768;54.148;12.174;2023-05-11T15:40:48;101469.06;;;26.23;nan
53514;BME280;39768;54.148;12.174;2023-05-11T15:44:50;101476.94;;;26.54;nan
53514;BME280;39768;54.148;12.174;2023-05-11T15:48:51;101477.72;;;26.56;nan
53514;BME280;39768;54.148;12.174;2023-05-11T15:52:53;101475.03;;;26.15;nan
53514;BME280;39768;54.148;12.174;2023-05-11T15:56:56;101473.75;;;25.94;nan
53514;BME280;39768;54.148;12.174;2023-05-11T16:00:58;101475.19;;;26.26;nan
53514;BME280;39768;54.148;12.174;2023-05-11T16:05:01;101479.84;;;25.97;nan
53514;BME280;39768;54.148;12.174;2023-05-11T16:09:02;101478.22;;;26.22;nan
53514;BME280;39768;54.148;12.174;2023-05-11T16:13:04;101481.47;;;26.27;nan
53514;BME280;39768;54.148;12.174;2023-05-11T16:17:06;101476.28;;;25.97;nan
53514;BME280;39768;54.148;12.174;2023-05-11T16:21:08;101492.13;;;26.17;nan
53514;BME280;39768;54.148;12.174;2023-05-11T16:25:09;101484.47;;;25.26;nan
53514;BME280;39768;54.148;12.174;2023-05-11T16:29:11;101478.47;;;24.33;nan
53514;BME280;39768;54.148;12.174;2023-05-11T16:33:12;101482.00;;;24.49;nan
53514;BME280;39768;54.148;12.174;2023-05-11T16:37:14;101480.25;;;23.86;nan
53514;BME280;39768;54.148;12.174;2023-05-11T16:41:16;101483.50;;;24.69;nan
53514;BME280;39768;54.148;12.174;2023-05-11T16:45:17;101484.06;;;24.30;nan
53514;BME280;39768;54.148;12.174;2023-05-11T16:49:19;101486.88;;;24.12;nan
53514;BME280;39768;54.148;12.174;2023-05-11T16:53:22;101489.25;;;24.03;nan
53514;BME280;39768;54.148;12.174;2023-05-11T16:57:27;101495.28;;;23.92;nan
53514;BME280;39768;54.148;12.174;2023-05-11T17:01:29;101497.72;;;23.81;nan
53514;BME280;39768;54.148;12.174;2023-05-11T17:05:31;101494.94;;;23.82;nan
53514;BME280;39768;54.148;12.174;2023-05-11T17:09:32;101498.00;;;24.53;nan
53514;BME280;39768;54.148;12.174;2023-05-11T17:13:34;101504.38;;;24.82;nan
53514;BME280;39768;54.148;12.174;2023-05-11T17:17:36;101509.88;;;24.67;nan
53514;BME280;39768;54.148;12.174;2023-05-11T17:21:38;101514.38;;;25.83;nan
53514;BME280;39768;54.148;12.174;2023-05-11T17:25:40;101523.03;;;25.18;nan
53514;BME280;39768;54.148;12.174;2023-05-11T17:29:43;101528.28;;;25.50;nan
53514;BME280;39768;54.148;12.174;2023-05-11T17:33:45;101537.78;;;25.28;nan
53514;BME280;39768;54.148;12.174;2023-05-11T17:37:46;101535.03;;;24.24;nan
53514;BME280;39768;54.148;12.174;2023-05-11T17:41:48;101535.78;;;21.88;nan
53514;BME280;39768;54.148;12.174;2023-05-11T17:45:49;101528.22;;;21.38;nan
53514;BME280;39768;54.148;12.174;2023-05-11T17:49:51;101532.16;;;21.11;nan
53514;BME280;39768;54.148;12.174;2023-05-11T17:53:52;101542.19;;;20.89;nan
53514;BME280;39768;54.148;12.174;2023-05-11T17:57:54;101552.56;;;20.98;nan
53514;BME280;39768;54.148;12.174;2023-05-11T18:01:55;101552.72;;;20.31;nan
53514;BME280;39768;54.148;12.174;2023-05-11T18:05:57;101560.59;;;20.35;nan
53514;BME280;39768;54.148;12.174;2023-05-11T18:09:59;101564.13;;;19.92;nan
53514;BME280;39768;54.148;12.174;2023-05-11T18:14:00;101562.69;;;19.84;nan
53514;BME280;39768;54.148;12.174;2023-05-11T18:18:02;101564.34;;;19.40;nan
53514;BME280;39768;54.148;12.174;2023-05-11T18:22:04;101566.72;;;19.24;nan
53514;BME280;39768;54.148;12.174;2023-05-11T18:26:05;101575.25;;;19.12;nan
53514;BME280;39768;54.148;12.174;2023-05-11T18:30:07;101580.94;;;18.78;nan
53514;BME280;39768;54.148;12.174;2023-05-11T18:34:09;101591.38;;;18.60;nan
53514;BME280;39768;54.148;12.174;2023-05-11T18:38:10;101591.78;;;18.75;nan
53514;BME280;39768;54.148;12.174;2023-05-11T18:42:12;101599.56;;;18.28;nan
53514;BME280;39768;54.148;12.174;2023-05-11T18:46:13;101613.22;;;18.22;nan
53514;BME280;39768;54.148;12.174;2023-05-11T18:50:15;101618.72;;;17.89;nan
53514;BME280;39768;54.148;12.174;2023-05-11T18:54:16;101618.84;;;17.52;nan
53514;BME280;39768;54.148;12.174;2023-05-11T18:58:18;101620.72;;;17.50;nan
53514;BME280;39768;54.148;12.174;2023-05-11T19:02:20;101638.56;;;17.51;nan
53514;BME280;39768;54.148;12.174;2023-05-11T19:06:22;101637.06;;;17.09;nan
53514;BME280;39768;54.148;12.174;2023-05-11T19:10:24;101650.31;;;17.49;nan
53514;BME280;39768;54.148;12.174;2023-05-11T19:14:26;101650.75;;;17.32;nan
53514;BME280;39768;54.148;12.174;2023-05-11T19:18:27;101660.38;;;17.39;nan
53514;BME280;39768;54.148;12.174;2023-05-11T19:22:29;101666.31;;;17.19;nan
53514;BME280;39768;54.148;12.174;2023-05-11T19:26:30;101668.16;;;17.17;nan
53514;BME280;39768;54.148;12.174;2023-05-11T19:30:32;101671.28;;;17.01;nan
53514;BME280;39768;54.148;12.174;2023-05-11T19:34:33;101674.91;;;16.61;nan
53514;BME280;39768;54.148;12.174;2023-05-11T19:38:36;101683.63;;;16.71;nan
53514;BME280;39768;54.148;12.174;2023-05-11T19:42:39;101686.31;;;16.71;nan
53514;BME280;39768;54.148;12.174;2023-05-11T19:46:40;101689.31;;;16.55;nan
53514;BME280;39768;54.148;12.174;2023-05-11T19:50:46;101686.66;;;16.55;nan
53514;BME280;39768;54.148;12.174;2023-05-11T19:54:48;101684.44;;;16.34;nan
53514;BME280;39768;54.148;12.174;2023-05-11T19:58:49;101689.94;;;16.30;nan
53514;BME280;39768;54.148;12.174;2023-05-11T20:02:51;101696.41;;;16.18;nan
53514;BME280;39768;54.148;12.174;2023-05-11T20:06:54;101697.69;;;16.42;nan
53514;BME280;39768;54.148;12.174;2023-05-11T20:10:55;101703.47;;;16.22;nan
53514;BME280;39768;54.148;12.174;2023-05-11T20:14:57;101704.56;;;16.13;nan
53514;BME280;39768;54.148;12.174;2023-05-11T20:18:59;101703.94;;;15.56;nan
53514;BME280;39768;54.148;12.174;2023-05-11T20:23:00;101703.19;;;15.93;nan
53514;BME280;39768;54.148;12.174;2023-05-11T20:27:03;101703.66;;;16.14;nan
53514;BME280;39768;54.148;12.174;2023-05-11T20:31:09;101715.28;;;15.69;nan
53514;BME280;39768;54.148;12.174;2023-05-11T20:35:11;101707.50;;;16.43;nan
53514;BME280;39768;54.148;12.174;2023-05-11T20:39:17;101717.38;;;16.39;nan
53514;BME280;39768;54.148;12.174;2023-05-11T20:43:19;101713.66;;;16.46;nan
53514;BME280;39768;54.148;12.174;2023-05-11T20:47:21;101715.28;;;16.13;nan
53514;BME280;39768;54.148;12.174;2023-05-11T20:51:22;101717.44;;;16.36;nan
53514;BME280;39768;54.148;12.174;2023-05-11T20:55:23;101720.88;;;16.44;nan
53514;BME280;39768;54.148;12.174;2023-05-11T20:59:25;101725.03;;;16.17;nan
53514;BME280;39768;54.148;12.174;2023-05-11T21:03:30;101729.28;;;16.26;nan
53514;BME280;39768;54.148;12.174;2023-05-11T21:07:31;101728.81;;;16.47;nan
53514;BME280;39768;54.148;12.174;2023-05-11T21:11:33;101734.31;;;16.41;nan
53514;BME280;39768;54.148;12.174;2023-05-11T21:15:34;101730.63;;;16.47;nan
53514;BME280;39768;54.148;12.174;2023-05-11T21:19:36;101739.53;;;16.47;nan
53514;BME280;39768;54.148;12.174;2023-05-11T21:23:37;101736.56;;;16.61;nan
53514;BME280;39768;54.148;12.174;2023-05-11T21:27:39;101729.56;;;16.54;nan
53514;BME280;39768;54.148;12.174;2023-05-11T21:31:41;101741.75;;;16.29;nan
53514;BME280;39768;54.148;12.174;2023-05-11T21:35:43;101749.03;;;16.22;nan
53514;BME280;39768;54.148;12.174;2023-05-11T21:39:48;101748.13;;;15.78;nan
53514;BME280;39768;54.148;12.174;2023-05-11T21:43:50;101751.72;;;16.20;nan
53514;BME280;39768;54.148;12.174;2023-05-11T21:47:51;101757.19;;;16.16;nan
53514;BME280;39768;54.148;12.174;2023-05-11T21:51:53;101756.66;;;15.99;nan
53514;BME280;39768;54.148;12.174;2023-05-11T21:55:54;101756.03;;;15.86;nan
53514;BME280;39768;54.148;12.174;2023-05-11T21:59:56;101762.00;;;15.99;nan
53514;BME280;39768;54.148;12.174;2023-05-11T22:03:57;101758.59;;;15.91;nan